Time;durP1;ratioP1;P1;durP2;ratioP2;P2;SDS_P1;SDS_P2;PMS_P1;PMS_P2;Temp;Humidity;BMP_temperature;BMP_pressure;BME280_temperature;BME280_humidity;BME280_pressure;Samples;Min_cycle;Max_cycle;Signal;HPM_P1;HPM_P2
2023/11/16 00:01:37;;;;;;;5.97;2.20;;;;;;;;;;5094002;28;20016;-86
2023/11/16 00:04:04;;;;;;;6.95;1.77;;;;;;;;;;5094221;28;20244;-85
2023/11/16 00:06:29;;;;;;;6.80;1.73;;;;;;;;;;5075652;28;20027;-85
2023/11/16 00:08:54;;;;;;;11.07;2.17;;;;;;;;;;5093303;28;20020;-85
2023/11/16 00:11:19;;;;;;;5.03;1.98;;;;;;;;;;5093745;28;20292;-85
2023/11/16 00:13:46;;;;;;;8.43;2.17;;;;;;;;;;5075362;28;20461;-86
2023/11/16 00:16:16;;;;;;;8.25;2.28;;;;;;;;;;5094228;28;20016;-86
2023/11/16 00:18:42;;;;;;;7.28;1.63;;;;;;;;;;5093662;28;20020;-85
2023/11/16 00:21:07;;;;;;;3.70;1.60;;;;;;;;;;5092768;28;20035;-85
2023/11/16 00:23:32;;;;;;;5.75;1.45;;;;;;;;;;5093313;28;20028;-85
2023/11/16 00:25:58;;;;;;;4.65;1.23;;;;;;;;;;5093255;28;20030;-85
2023/11/16 00:28:26;;;;;;;2.47;1.33;;;;;;;;;;5093270;28;20016;-87
2023/11/16 00:30:52;;;;;;;7.95;1.58;;;;;;;;;;5093466;28;20024;-85
2023/11/16 00:33:18;;;;;;;5.80;1.48;;;;;;;;;;5093311;28;20024;-85
2023/11/16 00:35:43;;;;;;;5.93;1.70;;;;;;;;;;5092645;28;20020;-86
2023/11/16 00:38:08;;;;;;;6.75;1.52;;;;;;;;;;5093300;28;20039;-85
2023/11/16 00:40:33;;;;;;;9.65;1.98;;;;;;;;;;5093291;28;20063;-85
2023/11/16 00:42:59;;;;;;;7.50;1.77;;;;;;;;;;5093626;28;20077;-85
2023/11/16 00:45:24;;;;;;;6.10;1.42;;;;;;;;;;5093399;28;20317;-86
2023/11/16 00:47:50;;;;;;;6.97;1.60;;;;;;;;;;5092907;28;20055;-85
2023/11/16 00:50:15;;;;;;;6.43;1.20;;;;;;;;;;5093184;28;20020;-86
2023/11/16 00:52:40;;;;;;;5.25;1.50;;;;;;;;;;5093105;28;20279;-85
2023/11/16 00:55:06;;;;;;;6.10;1.43;;;;;;;;;;5092868;28;20035;-85
2023/11/16 00:57:31;;;;;;;5.07;1.48;;;;;;;;;;5093037;28;20248;-86
2023/11/16 00:59:56;;;;;;;3.35;1.58;;;;;;;;;;5074768;28;20453;-87
2023/11/16 01:02:21;;;;;;;6.93;1.87;;;;;;;;;;5092675;28;20026;-85
2023/11/16 01:04:47;;;;;;;7.30;1.57;;;;;;;;;;5092713;28;20648;-86
2023/11/16 01:07:12;;;;;;;6.23;1.60;;;;;;;;;;5092712;28;20461;-85
2023/11/16 01:09:38;;;;;;;6.43;1.10;;;;;;;;;;5092871;28;20099;-85
2023/11/16 01:12:03;;;;;;;9.93;2.03;;;;;;;;;;5092721;28;20757;-85
2023/11/16 01:14:29;;;;;;;13.25;2.22;;;;;;;;;;5092778;28;20021;-85
2023/11/16 01:16:56;;;;;;;4.35;1.38;;;;;;;;;;5092907;28;20062;-85
2023/11/16 01:19:26;;;;;;;5.82;1.17;;;;;;;;;;5092566;28;20460;-85
2023/11/16 01:21:54;;;;;;;6.13;1.08;;;;;;;;;;5092808;28;20027;-85
2023/11/16 01:24:22;;;;;;;4.38;1.30;;;;;;;;;;5092676;28;20059;-85
2023/11/16 01:26:47;;;;;;;4.68;0.95;;;;;;;;;;5073972;28;20035;-86
2023/11/16 01:29:18;;;;;;;5.22;1.50;;;;;;;;;;5092754;28;20020;-85
2023/11/16 01:31:43;;;;;;;2.97;1.10;;;;;;;;;;5074743;28;20490;-85
2023/11/16 01:34:10;;;;;;;11.10;1.77;;;;;;;;;;5095399;28;20500;-86
2023/11/16 01:36:36;;;;;;;6.68;1.17;;;;;;;;;;5096729;28;20027;-86
2023/11/16 01:39:01;;;;;;;9.20;1.52;;;;;;;;;;5097565;28;20020;-85
2023/11/16 01:41:26;;;;;;;2.75;1.02;;;;;;;;;;5079672;28;20449;-85
2023/11/16 01:43:52;;;;;;;5.97;1.50;;;;;;;;;;5097736;28;20050;-85
2023/11/16 01:46:17;;;;;;;8.90;1.30;;;;;;;;;;5097418;28;20077;-85
2023/11/16 01:48:43;;;;;;;8.48;1.10;;;;;;;;;;5097574;28;20532;-85
2023/11/16 01:51:11;;;;;;;6.88;1.23;;;;;;;;;;5097511;28;20457;-85
2023/11/16 01:53:56;;;;;;;4.97;1.30;;;;;;;;;;5097547;28;20012;-85
2023/11/16 01:56:23;;;;;;;3.95;1.17;;;;;;;;;;5097296;28;20020;-85
2023/11/16 01:58:48;;;;;;;6.45;1.35;;;;;;;;;;5097347;28;20020;-84
2023/11/16 02:01:15;;;;;;;6.22;1.40;;;;;;;;;;5097143;28;20438;-85
2023/11/16 02:03:41;;;;;;;2.90;1.17;;;;;;;;;;5097308;28;20019;-85
2023/11/16 02:06:07;;;;;;;10.57;1.50;;;;;;;;;;5097001;28;20024;-85
2023/11/16 02:08:35;;;;;;;5.22;1.20;;;;;;;;;;5097335;28;20343;-84
2023/11/16 02:11:00;;;;;;;8.18;1.73;;;;;;;;;;5078693;28;20361;-85
2023/11/16 02:13:25;;;;;;;3.33;1.17;;;;;;;;;;5097229;28;20445;-85
2023/11/16 02:15:55;;;;;;;4.17;1.40;;;;;;;;;;5097090;28;20073;-85
2023/11/16 02:18:21;;;;;;;5.18;1.27;;;;;;;;;;5097140;28;20273;-85
2023/11/16 02:20:46;;;;;;;5.60;0.90;;;;;;;;;;5097100;28;20056;-84
2023/11/16 02:23:11;;;;;;;6.93;1.42;;;;;;;;;;5097094;28;20031;-85
2023/11/16 02:25:43;;;;;;;6.10;1.67;;;;;;;;;;5078656;28;20024;-85
2023/11/16 02:28:09;;;;;;;4.05;1.27;;;;;;;;;;5078773;28;20082;-85
2023/11/16 02:30:35;;;;;;;11.68;1.83;;;;;;;;;;5096661;28;20051;-85
2023/11/16 02:33:01;;;;;;;10.27;1.70;;;;;;;;;;5096823;28;20024;-85
2023/11/16 02:35:26;;;;;;;6.07;1.60;;;;;;;;;;5078663;28;20020;-85
2023/11/16 02:37:51;;;;;;;8.43;2.33;;;;;;;;;;5095986;28;20020;-88
2023/11/16 02:40:18;;;;;;;4.87;1.90;;;;;;;;;;5095464;28;20016;-85
2023/11/16 02:42:44;;;;;;;4.95;1.63;;;;;;;;;;5096543;28;20336;-85
2023/11/16 02:45:10;;;;;;;5.15;2.17;;;;;;;;;;5095883;28;20016;-85
2023/11/16 02:47:36;;;;;;;4.28;1.73;;;;;;;;;;5096379;28;20474;-85
2023/11/16 02:50:03;;;;;;;10.35;1.83;;;;;;;;;;5096343;28;20020;-85
2023/11/16 02:52:28;;;;;;;12.20;2.10;;;;;;;;;;5096576;28;20453;-86
2023/11/16 02:54:53;;;;;;;5.67;1.53;;;;;;;;;;5096240;28;20024;-85
2023/11/16 02:57:20;;;;;;;6.37;1.70;;;;;;;;;;5096301;28;20707;-85
2023/11/16 02:59:45;;;;;;;7.65;1.83;;;;;;;;;;5078129;28;20016;-86
2023/11/16 03:02:13;;;;;;;4.82;1.98;;;;;;;;;;5078120;28;20381;-85
2023/11/16 03:04:38;;;;;;;6.15;2.00;;;;;;;;;;5096149;28;20067;-85
2023/11/16 03:07:04;;;;;;;6.55;1.90;;;;;;;;;;5096138;28;20024;-85
2023/11/16 03:09:29;;;;;;;3.77;1.63;;;;;;;;;;5077925;28;20412;-86
2023/11/16 03:11:54;;;;;;;7.60;2.33;;;;;;;;;;5095733;28;20126;-85
2023/11/16 03:14:19;;;;;;;8.70;2.57;;;;;;;;;;5096207;28;20070;-85
2023/11/16 03:16:45;;;;;;;8.80;2.70;;;;;;;;;;5096263;28;20274;-85
2023/11/16 03:19:10;;;;;;;8.27;3.25;;;;;;;;;;5095814;28;20273;-85
2023/11/16 03:21:36;;;;;;;5.68;2.45;;;;;;;;;;5095987;28;20028;-85
2023/11/16 03:24:01;;;;;;;8.93;2.38;;;;;;;;;;5077757;28;20090;-86
2023/11/16 03:26:27;;;;;;;10.77;2.63;;;;;;;;;;5095673;28;20094;-85
2023/11/16 03:28:52;;;;;;;8.90;2.92;;;;;;;;;;5077509;28;20281;-85
2023/11/16 03:31:19;;;;;;;8.30;2.87;;;;;;;;;;5095354;28;20023;-85
2023/11/16 03:33:44;;;;;;;9.77;2.92;;;;;;;;;;5095303;28;20249;-86
2023/11/16 03:36:09;;;;;;;7.80;2.20;;;;;;;;;;5095625;28;20384;-85
2023/11/16 03:38:35;;;;;;;5.93;2.78;;;;;;;;;;5095774;28;20028;-86
2023/11/16 03:41:00;;;;;;;8.02;2.58;;;;;;;;;;5095505;28;20020;-86
2023/11/16 03:43:25;;;;;;;9.55;2.63;;;;;;;;;;5095221;28;20106;-85
2023/11/16 03:45:51;;;;;;;5.43;2.40;;;;;;;;;;5094873;28;20056;-85
2023/11/16 03:48:16;;;;;;;6.97;2.10;;;;;;;;;;5095423;28;20322;-85
2023/11/16 03:50:41;;;;;;;10.23;2.72;;;;;;;;;;5095158;28;20024;-85
2023/11/16 03:53:07;;;;;;;13.30;2.85;;;;;;;;;;5095314;28;20020;-86
2023/11/16 03:55:32;;;;;;;11.30;3.25;;;;;;;;;;5076347;28;20570;-86
2023/11/16 03:57:57;;;;;;;6.78;2.53;;;;;;;;;;5094759;28;20065;-85
2023/11/16 04:00:24;;;;;;;9.68;2.95;;;;;;;;;;5095234;28;20449;-85
2023/11/16 04:02:49;;;;;;;6.15;2.55;;;;;;;;;;5094725;28;20020;-85
2023/11/16 04:05:16;;;;;;;17.75;3.00;;;;;;;;;;5094725;28;20043;-85
2023/11/16 04:07:41;;;;;;;9.10;2.17;;;;;;;;;;5094586;28;20024;-85
2023/11/16 04:10:09;;;;;;;12.70;3.05;;;;;;;;;;5094742;28;20016;-85
2023/11/16 04:12:37;;;;;;;11.02;2.38;;;;;;;;;;5076481;28;20392;-85
2023/11/16 04:15:04;;;;;;;6.85;2.60;;;;;;;;;;5076681;28;20028;-85
2023/11/16 04:17:29;;;;;;;8.45;2.63;;;;;;;;;;5094557;28;20130;-86
2023/11/16 04:19:54;;;;;;;4.32;2.13;;;;;;;;;;5094527;28;20478;-85
2023/11/16 04:22:21;;;;;;;5.23;2.13;;;;;;;;;;5094685;28;20027;-85
2023/11/16 04:24:51;;;;;;;9.10;2.60;;;;;;;;;;5076550;28;20032;-85
2023/11/16 04:27:16;;;;;;;7.45;2.60;;;;;;;;;;5094583;28;20149;-85
2023/11/16 04:29:42;;;;;;;11.23;2.40;;;;;;;;;;5094251;28;20056;-85
2023/11/16 04:32:07;;;;;;;6.63;2.28;;;;;;;;;;5076410;28;20330;-85
2023/11/16 04:34:33;;;;;;;10.13;2.33;;;;;;;;;;5094538;28;20020;-86
2023/11/16 04:37:00;;;;;;;3.95;1.83;;;;;;;;;;5094446;28;20260;-85
2023/11/16 04:39:25;;;;;;;14.35;2.53;;;;;;;;;;5094596;28;20099;-85
2023/11/16 04:41:50;;;;;;;7.50;2.33;;;;;;;;;;5094513;28;20059;-86
2023/11/16 04:44:16;;;;;;;14.50;2.70;;;;;;;;;;5094206;28;20103;-86
2023/11/16 04:46:48;;;;;;;11.67;2.67;;;;;;;;;;5093995;28;20324;-85
2023/11/16 04:49:14;;;;;;;6.88;2.47;;;;;;;;;;5094301;28;20279;-85
2023/11/16 04:51:40;;;;;;;7.95;2.28;;;;;;;;;;5092896;28;20036;-85
2023/11/16 04:54:06;;;;;;;6.05;2.28;;;;;;;;;;5094536;28;20121;-85
2023/11/16 04:56:31;;;;;;;11.00;2.25;;;;;;;;;;5093799;28;20020;-85
2023/11/16 04:58:57;;;;;;;12.50;2.63;;;;;;;;;;5094178;28;20032;-85
2023/11/16 05:01:23;;;;;;;9.93;2.60;;;;;;;;;;5094282;28;20112;-85
2023/11/16 05:03:48;;;;;;;11.40;2.60;;;;;;;;;;5094088;28;20709;-85
2023/11/16 05:06:14;;;;;;;10.57;2.13;;;;;;;;;;5093891;28;20031;-85
2023/11/16 05:08:40;;;;;;;7.18;2.55;;;;;;;;;;5093999;28;20023;-85
2023/11/16 05:11:05;;;;;;;6.63;2.13;;;;;;;;;;5093608;28;20031;-85
2023/11/16 05:13:31;;;;;;;13.00;2.10;;;;;;;;;;5075782;28;20055;-86
2023/11/16 05:15:56;;;;;;;8.40;2.47;;;;;;;;;;5075913;28;20030;-85
2023/11/16 05:18:22;;;;;;;5.23;1.70;;;;;;;;;;5093661;28;20337;-85
2023/11/16 05:20:47;;;;;;;7.28;1.70;;;;;;;;;;5094105;28;20710;-85
2023/11/16 05:23:13;;;;;;;10.23;1.92;;;;;;;;;;5092749;28;20023;-85
2023/11/16 05:25:38;;;;;;;9.30;1.88;;;;;;;;;;5075719;28;20050;-85
2023/11/16 05:28:04;;;;;;;13.53;2.13;;;;;;;;;;5094155;28;20088;-85
2023/11/16 05:30:29;;;;;;;7.20;1.85;;;;;;;;;;5094006;28;20782;-85
2023/11/16 05:32:55;;;;;;;15.38;2.88;;;;;;;;;;5093785;28;20028;-85
2023/11/16 05:35:20;;;;;;;5.57;1.70;;;;;;;;;;5094189;28;20107;-85
2023/11/16 05:37:45;;;;;;;5.10;1.73;;;;;;;;;;5084865;28;20153;-86
2023/11/16 05:40:12;;;;;;;7.82;1.98;;;;;;;;;;5112336;28;20027;-85
2023/11/16 05:42:37;;;;;;;9.13;1.98;;;;;;;;;;5112936;28;20093;-84
2023/11/16 05:45:03;;;;;;;10.48;1.85;;;;;;;;;;5114207;28;20023;-86
2023/11/16 05:47:29;;;;;;;7.93;1.65;;;;;;;;;;5114097;28;20020;-84
2023/11/16 05:49:54;;;;;;;8.05;1.90;;;;;;;;;;5095877;28;20027;-85
2023/11/16 05:52:20;;;;;;;8.17;1.73;;;;;;;;;;5113995;28;20031;-85
2023/11/16 05:54:45;;;;;;;10.50;2.47;;;;;;;;;;5113637;28;20264;-85
2023/11/16 05:57:10;;;;;;;3.88;1.60;;;;;;;;;;5113890;28;20051;-84
2023/11/16 05:59:36;;;;;;;6.20;1.90;;;;;;;;;;5113658;28;20024;-85
2023/11/16 06:02:01;;;;;;;7.27;1.77;;;;;;;;;;5113948;28;20247;-85
2023/11/16 06:04:27;;;;;;;9.43;1.93;;;;;;;;;;5113854;28;20262;-85
2023/11/16 06:06:53;;;;;;;13.70;2.22;;;;;;;;;;5095652;28;20248;-85
2023/11/16 06:09:19;;;;;;;11.48;2.10;;;;;;;;;;5095460;28;20031;-84
2023/11/16 06:11:44;;;;;;;5.88;1.83;;;;;;;;;;5113390;28;20515;-84
2023/11/16 06:14:09;;;;;;;5.55;1.83;;;;;;;;;;5095697;28;20020;-85
2023/11/16 06:16:35;;;;;;;7.03;1.77;;;;;;;;;;5113621;28;20098;-85
2023/11/16 06:19:01;;;;;;;7.90;2.25;;;;;;;;;;5114340;28;20327;-85
2023/11/16 06:21:26;;;;;;;11.63;2.05;;;;;;;;;;5117149;28;20016;-85
2023/11/16 06:23:53;;;;;;;10.20;1.85;;;;;;;;;;5117447;28;20077;-85
2023/11/16 06:26:19;;;;;;;10.20;2.08;;;;;;;;;;5117234;28;20007;-84
2023/11/16 06:28:44;;;;;;;9.65;1.90;;;;;;;;;;5117174;28;20104;-84
2023/11/16 06:31:09;;;;;;;7.77;2.40;;;;;;;;;;5117021;28;20023;-85
2023/11/16 06:33:34;;;;;;;6.17;2.10;;;;;;;;;;5116993;28;20234;-85
2023/11/16 06:36:00;;;;;;;10.33;1.97;;;;;;;;;;5116920;28;20309;-84
2023/11/16 06:38:29;;;;;;;2.20;1.33;;;;;;;;;;5117194;28;20020;-85
2023/11/16 06:40:55;;;;;;;9.25;2.55;;;;;;;;;;5117095;28;20452;-84
2023/11/16 06:43:23;;;;;;;8.55;1.90;;;;;;;;;;5116761;28;20023;-84
2023/11/16 06:45:48;;;;;;;10.85;2.40;;;;;;;;;;5117324;28;20107;-85
2023/11/16 06:48:15;;;;;;;5.07;1.83;;;;;;;;;;5117290;28;20096;-85
2023/11/16 06:50:40;;;;;;;11.40;1.95;;;;;;;;;;5116911;28;20172;-85
2023/11/16 06:53:09;;;;;;;9.07;2.47;;;;;;;;;;5116803;28;20106;-84
2023/11/16 06:55:35;;;;;;;7.55;1.80;;;;;;;;;;5116792;28;20026;-86
2023/11/16 06:58:01;;;;;;;2.63;1.80;;;;;;;;;;5098530;28;20027;-85
2023/11/16 07:00:27;;;;;;;7.57;1.70;;;;;;;;;;5116683;28;20015;-85
2023/11/16 07:02:52;;;;;;;6.30;2.30;;;;;;;;;;5116675;28;20098;-85
2023/11/16 07:05:18;;;;;;;7.25;2.17;;;;;;;;;;5116690;28;20051;-85
2023/11/16 07:07:46;;;;;;;7.07;2.00;;;;;;;;;;5116464;28;20019;-84
2023/11/16 07:10:12;;;;;;;10.02;2.33;;;;;;;;;;5116280;28;20413;-85
2023/11/16 07:12:40;;;;;;;11.98;2.40;;;;;;;;;;5116508;28;20480;-85
2023/11/16 07:15:05;;;;;;;6.07;1.80;;;;;;;;;;5116413;28;20093;-85
2023/11/16 07:17:31;;;;;;;5.63;1.67;;;;;;;;;;5116671;28;20107;-85
2023/11/16 07:19:57;;;;;;;11.10;2.40;;;;;;;;;;5098007;28;20074;-84
2023/11/16 07:22:22;;;;;;;7.65;1.98;;;;;;;;;;5116534;28;20027;-84
2023/11/16 07:24:50;;;;;;;13.05;2.63;;;;;;;;;;5097906;28;20023;-85
2023/11/16 07:27:15;;;;;;;8.25;3.00;;;;;;;;;;5116499;28;20031;-84
2023/11/16 07:29:42;;;;;;;7.37;2.07;;;;;;;;;;5116125;28;20521;-85
2023/11/16 07:32:08;;;;;;;6.45;2.92;;;;;;;;;;5116222;28;20027;-85
2023/11/16 07:34:35;;;;;;;14.55;3.22;;;;;;;;;;5116054;28;20023;-85
2023/11/16 07:37:01;;;;;;;9.10;2.65;;;;;;;;;;5115582;28;20032;-85
2023/11/16 07:39:26;;;;;;;12.65;2.90;;;;;;;;;;5115857;28;20022;-85
2023/11/16 07:41:51;;;;;;;6.30;1.65;;;;;;;;;;5115804;28;20468;-85
2023/11/16 07:44:17;;;;;;;8.30;2.20;;;;;;;;;;5097470;28;20016;-85
2023/11/16 07:46:42;;;;;;;5.75;2.40;;;;;;;;;;5097558;28;20039;-85
2023/11/16 07:49:09;;;;;;;7.93;2.20;;;;;;;;;;5115491;28;20023;-85
2023/11/16 07:51:34;;;;;;;6.38;2.55;;;;;;;;;;5115490;28;20449;-86
2023/11/16 07:54:04;;;;;;;7.43;2.10;;;;;;;;;;5115684;28;20015;-85
2023/11/16 07:56:29;;;;;;;6.70;2.20;;;;;;;;;;5115719;28;20068;-85
2023/11/16 07:58:58;;;;;;;11.45;2.60;;;;;;;;;;5097425;28;20020;-85
2023/11/16 08:01:29;;;;;;;5.75;2.35;;;;;;;;;;5097376;28;20468;-85
2023/11/16 08:03:57;;;;;;;8.70;1.95;;;;;;;;;;5115596;28;20043;-85
2023/11/16 08:06:25;;;;;;;6.65;2.10;;;;;;;;;;5115250;28;20034;-85
2023/11/16 08:08:50;;;;;;;10.30;2.20;;;;;;;;;;5115524;28;20023;-85
2023/11/16 08:11:16;;;;;;;8.73;2.08;;;;;;;;;;5114908;28;20099;-85
2023/11/16 08:13:42;;;;;;;7.13;2.17;;;;;;;;;;5096838;28;20460;-85
2023/11/16 08:16:10;;;;;;;12.57;2.55;;;;;;;;;;5115160;28;20024;-85
2023/11/16 08:18:37;;;;;;;11.00;2.83;;;;;;;;;;5096988;28;20020;-85
2023/11/16 08:21:04;;;;;;;12.85;2.85;;;;;;;;;;5114959;28;20090;-85
2023/11/16 08:23:30;;;;;;;10.18;2.80;;;;;;;;;;5115352;28;20102;-85
2023/11/16 08:25:57;;;;;;;7.80;2.30;;;;;;;;;;5115160;28;20427;-85
2023/11/16 08:28:24;;;;;;;11.20;2.47;;;;;;;;;;5115081;28;20023;-85
2023/11/16 08:30:53;;;;;;;18.35;3.55;;;;;;;;;;5114622;28;20376;-85
2023/11/16 08:33:18;;;;;;;11.52;2.92;;;;;;;;;;5114919;28;20020;-85
2023/11/16 08:35:43;;;;;;;8.87;2.47;;;;;;;;;;5114848;28;20024;-85
2023/11/16 08:38:14;;;;;;;12.02;2.38;;;;;;;;;;5114513;28;20274;-84
2023/11/16 08:40:39;;;;;;;10.07;2.20;;;;;;;;;;5114561;28;20012;-85
2023/11/16 08:43:10;;;;;;;11.52;2.88;;;;;;;;;;5114316;28;20024;-85
2023/11/16 08:45:35;;;;;;;15.00;2.53;;;;;;;;;;5114541;28;20015;-85
2023/11/16 08:48:03;;;;;;;10.13;2.63;;;;;;;;;;5114989;28;20015;-85
2023/11/16 08:50:29;;;;;;;7.18;2.28;;;;;;;;;;5096437;28;20334;-85
2023/11/16 08:52:57;;;;;;;6.68;2.10;;;;;;;;;;5114541;28;20015;-85
2023/11/16 08:55:22;;;;;;;13.00;2.70;;;;;;;;;;5114244;28;20023;-85
2023/11/16 08:57:47;;;;;;;6.60;2.00;;;;;;;;;;5114173;28;20038;-85
2023/11/16 09:00:30;;;;;;;15.82;2.55;;;;;;;;;;5114753;28;20027;-85
2023/11/16 09:02:56;;;;;;;9.52;2.85;;;;;;;;;;5096329;28;20019;-85
2023/11/16 09:05:23;;;;;;;6.82;2.22;;;;;;;;;;5114421;28;20076;-85
2023/11/16 09:07:48;;;;;;;8.30;2.50;;;;;;;;;;5114714;28;20114;-84
2023/11/16 09:10:14;;;;;;;6.63;2.55;;;;;;;;;;5114479;28;20107;-85
2023/11/16 09:12:42;;;;;;;17.27;2.35;;;;;;;;;;5114446;28;20419;-85
2023/11/16 09:15:10;;;;;;;8.07;2.65;;;;;;;;;;5096120;28;20026;-85
2023/11/16 09:17:36;;;;;;;12.20;2.35;;;;;;;;;;5095745;28;20019;-85
2023/11/16 09:20:04;;;;;;;8.05;2.08;;;;;;;;;;5114296;28;20098;-85
2023/11/16 09:22:30;;;;;;;12.18;2.30;;;;;;;;;;5113983;28;20027;-85
2023/11/16 09:24:57;;;;;;;5.05;1.80;;;;;;;;;;5114214;28;20015;-85
2023/11/16 09:27:23;;;;;;;5.88;1.92;;;;;;;;;;5114238;28;20012;-85
2023/11/16 09:29:51;;;;;;;17.17;2.13;;;;;;;;;;5114253;28;20468;-85
2023/11/16 09:32:16;;;;;;;10.45;2.55;;;;;;;;;;5114195;28;20024;-85
2023/11/16 09:34:42;;;;;;;6.83;2.33;;;;;;;;;;5114105;28;20023;-85
2023/11/16 09:37:08;;;;;;;8.50;3.10;;;;;;;;;;5113950;28;20027;-85
2023/11/16 09:39:33;;;;;;;10.25;3.42;;;;;;;;;;5113872;28;20012;-85
2023/11/16 09:42:01;;;;;;;7.25;2.53;;;;;;;;;;5114134;28;20425;-85
2023/11/16 09:44:27;;;;;;;7.00;2.40;;;;;;;;;;5095818;28;20023;-85
2023/11/16 09:47:02;;;;;;;12.65;2.47;;;;;;;;;;5095788;28;20019;-85
2023/11/16 09:49:30;;;;;;;15.48;3.35;;;;;;;;;;5114124;28;20081;-85
2023/11/16 09:51:56;;;;;;;11.05;3.38;;;;;;;;;;5095567;28;20061;-85
2023/11/16 09:54:24;;;;;;;11.85;3.15;;;;;;;;;;5097006;28;20106;-84
2023/11/16 09:56:54;;;;;;;12.75;2.88;;;;;;;;;;5117722;28;20046;-85
2023/11/16 09:59:34;;;;;;;9.93;2.92;;;;;;;;;;5099636;28;20456;-85
2023/11/16 10:02:09;;;;;;;11.50;2.20;;;;;;;;;;5117913;28;20040;-85
2023/11/16 10:04:35;;;;;;;11.77;2.80;;;;;;;;;;5099601;28;20019;-85
2023/11/16 10:07:04;;;;;;;12.93;2.38;;;;;;;;;;5118113;28;20470;-85
2023/11/16 10:09:39;;;;;;;11.18;2.03;;;;;;;;;;5117687;28;20041;-84
2023/11/16 10:12:11;;;;;;;7.88;2.03;;;;;;;;;;5117576;28;20043;-84
2023/11/16 10:14:39;;;;;;;6.53;1.88;;;;;;;;;;5099438;28;20111;-85
2023/11/16 10:17:04;;;;;;;11.13;2.00;;;;;;;;;;5117625;28;20043;-85
2023/11/16 10:19:30;;;;;;;10.40;1.88;;;;;;;;;;5117329;28;20023;-85
2023/11/16 10:21:57;;;;;;;4.15;1.38;;;;;;;;;;5117687;28;20039;-85
2023/11/16 10:24:22;;;;;;;8.10;1.63;;;;;;;;;;5117599;28;20034;-85
2023/11/16 10:26:54;;;;;;;4.13;1.20;;;;;;;;;;5117431;28;20094;-85
2023/11/16 10:29:20;;;;;;;6.38;1.77;;;;;;;;;;5117458;28;20317;-85
2023/11/16 10:31:46;;;;;;;4.13;1.88;;;;;;;;;;5117512;28;20031;-85
2023/11/16 10:34:13;;;;;;;8.15;2.00;;;;;;;;;;5117734;28;20050;-85
2023/11/16 10:36:39;;;;;;;6.28;1.90;;;;;;;;;;5117113;28;20027;-86
2023/11/16 10:39:11;;;;;;;8.80;1.70;;;;;;;;;;5117107;28;20028;-85
2023/11/16 10:41:37;;;;;;;7.47;1.60;;;;;;;;;;5098940;28;20016;-85
2023/11/16 10:44:03;;;;;;;5.28;1.42;;;;;;;;;;5117050;28;20022;-85
2023/11/16 10:46:29;;;;;;;7.38;1.42;;;;;;;;;;5116591;28;20015;-85
2023/11/16 10:48:55;;;;;;;5.00;1.38;;;;;;;;;;5117016;28;20019;-85
2023/11/16 10:51:21;;;;;;;5.75;1.40;;;;;;;;;;5117196;28;20011;-85
2023/11/16 10:53:51;;;;;;;9.35;1.83;;;;;;;;;;5116681;28;20438;-85
2023/11/16 10:56:17;;;;;;;8.93;1.52;;;;;;;;;;5117092;28;20019;-85
2023/11/16 10:58:44;;;;;;;4.68;1.30;;;;;;;;;;5116768;28;20075;-85
2023/11/16 11:01:12;;;;;;;7.88;1.70;;;;;;;;;;5116982;28;20023;-85
2023/11/16 11:03:38;;;;;;;6.30;1.83;;;;;;;;;;5098484;28;20020;-85
2023/11/16 11:06:06;;;;;;;11.20;2.22;;;;;;;;;;5116596;28;20024;-85
2023/11/16 11:08:36;;;;;;;7.28;1.85;;;;;;;;;;5116757;28;20020;-85
2023/11/16 11:11:03;;;;;;;5.65;1.55;;;;;;;;;;5116305;28;20353;-85
2023/11/16 11:13:31;;;;;;;12.10;1.60;;;;;;;;;;5116512;28;20466;-85
2023/11/16 11:16:03;;;;;;;7.40;1.42;;;;;;;;;;5116082;28;20023;-85
2023/11/16 11:18:28;;;;;;;4.05;1.50;;;;;;;;;;5098159;28;20342;-85
2023/11/16 11:21:09;;;;;;;6.95;1.17;;;;;;;;;;5098108;28;20049;-85
2023/11/16 11:23:38;;;;;;;5.00;1.60;;;;;;;;;;5116384;28;20015;-85
2023/11/16 11:26:04;;;;;;;8.60;1.80;;;;;;;;;;5116214;28;20019;-85
2023/11/16 11:28:29;;;;;;;5.80;1.67;;;;;;;;;;5116428;28;20032;-85
2023/11/16 11:30:57;;;;;;;7.28;1.70;;;;;;;;;;5116231;28;20020;-84
2023/11/16 11:33:45;;;;;;;8.23;1.60;;;;;;;;;;5097724;28;20035;-85
2023/11/16 11:36:16;;;;;;;10.60;1.65;;;;;;;;;;5097616;28;20031;-86
2023/11/16 11:38:42;;;;;;;5.75;1.63;;;;;;;;;;5116060;28;20448;-86
2023/11/16 11:41:08;;;;;;;5.85;1.75;;;;;;;;;;5097618;28;20441;-85
2023/11/16 11:43:34;;;;;;;7.05;1.60;;;;;;;;;;5115877;28;20024;-85
2023/11/16 11:46:00;;;;;;;8.93;1.50;;;;;;;;;;5097654;28;20380;-85
2023/11/16 11:48:29;;;;;;;6.68;1.90;;;;;;;;;;5115712;28;20024;-85
2023/11/16 11:50:57;;;;;;;8.32;1.50;;;;;;;;;;5115424;28;20023;-85
2023/11/16 11:53:27;;;;;;;5.07;2.00;;;;;;;;;;5115395;28;20020;-85
2023/11/16 11:55:53;;;;;;;6.85;1.55;;;;;;;;;;5115250;28;20106;-85
2023/11/16 11:58:19;;;;;;;4.75;1.30;;;;;;;;;;5097377;28;20023;-85
2023/11/16 12:00:51;;;;;;;6.20;1.52;;;;;;;;;;5115318;28;20349;-85
2023/11/16 12:03:20;;;;;;;;;;;;;;;;;;5116084;28;20023;-85
2023/11/16 12:05:52;;;;;;;4.13;1.58;;;;;;;;;;5115170;28;20335;-85
2023/11/16 12:08:18;;;;;;;7.05;1.58;;;;;;;;;;5115262;28;20099;-85
2023/11/16 12:10:43;;;;;;;12.52;1.83;;;;;;;;;;5115374;28;20463;-85
2023/11/16 12:13:09;;;;;;;10.13;1.90;;;;;;;;;;5115569;28;20476;-85
2023/11/16 12:15:38;;;;;;;8.90;2.10;;;;;;;;;;5115458;28;20019;-84
2023/11/16 12:18:10;;;;;;;6.68;2.00;;;;;;;;;;5114243;28;20022;-85
2023/11/16 12:20:36;;;;;;;;;;;;;;;;;;5115720;28;20026;-85
2023/11/16 12:23:04;;;;;;;7.38;2.00;;;;;;;;;;5096933;28;19904;-85
2023/11/16 12:25:29;;;;;;;4.85;1.80;;;;;;;;;;5114964;28;20023;-85
2023/11/16 12:27:57;;;;;;;6.63;1.90;;;;;;;;;;5115051;28;20016;-85
2023/11/16 12:30:22;;;;;;;4.88;2.08;;;;;;;;;;5114984;28;20031;-85
2023/11/16 12:32:47;;;;;;;19.43;4.27;;;;;;;;;;5114898;28;20027;-85
2023/11/16 12:35:14;;;;;;;8.13;3.50;;;;;;;;;;5115103;28;20260;-85
2023/11/16 12:37:42;;;;;;;7.68;2.97;;;;;;;;;;5096700;28;20073;-85
2023/11/16 12:40:16;;;;;;;7.45;3.15;;;;;;;;;;5115000;28;20024;-85
2023/11/16 12:42:41;;;;;;;6.13;2.08;;;;;;;;;;5115133;28;20035;-85
2023/11/16 12:45:07;;;;;;;6.85;2.30;;;;;;;;;;5114672;28;20080;-85
2023/11/16 12:47:32;;;;;;;8.15;2.40;;;;;;;;;;5114561;28;20023;-85
2023/11/16 12:49:58;;;;;;;4.05;1.92;;;;;;;;;;5114977;28;20101;-84
2023/11/16 12:52:24;;;;;;;8.63;2.30;;;;;;;;;;5096414;28;20411;-85
2023/11/16 12:54:51;;;;;;;8.95;2.42;;;;;;;;;;5114238;28;20019;-85
2023/11/16 12:57:16;;;;;;;7.65;2.20;;;;;;;;;;5096387;28;20024;-84
2023/11/16 12:59:42;;;;;;;5.53;1.90;;;;;;;;;;5114516;28;20061;-85
2023/11/16 13:02:10;;;;;;;5.37;1.97;;;;;;;;;;5114815;28;20361;-85
2023/11/16 13:04:35;;;;;;;7.53;2.22;;;;;;;;;;5114363;28;20043;-85
2023/11/16 13:07:01;;;;;;;5.32;2.60;;;;;;;;;;5114333;28;20074;-85
2023/11/16 13:09:26;;;;;;;9.75;2.75;;;;;;;;;;5114132;28;20019;-85
2023/11/16 13:11:51;;;;;;;8.03;2.83;;;;;;;;;;5095872;28;20405;-84
2023/11/16 13:14:16;;;;;;;7.17;2.67;;;;;;;;;;5096633;28;20046;-85
2023/11/16 13:16:42;;;;;;;6.22;2.58;;;;;;;;;;5114361;28;20743;-86
2023/11/16 13:19:07;;;;;;;10.77;2.83;;;;;;;;;;5114426;28;20020;-85
2023/11/16 13:21:33;;;;;;;8.90;2.83;;;;;;;;;;5114014;28;20376;-84
2023/11/16 13:23:58;;;;;;;6.15;2.30;;;;;;;;;;5096052;28;20106;-84
2023/11/16 13:26:25;;;;;;;8.48;2.78;;;;;;;;;;5114142;28;20030;-84
2023/11/16 13:28:52;;;;;;;11.90;2.97;;;;;;;;;;5116119;28;20042;-85
2023/11/16 13:31:17;;;;;;;8.52;2.70;;;;;;;;;;5118540;28;20092;-85
2023/11/16 13:33:42;;;;;;;11.32;2.97;;;;;;;;;;5100151;28;20426;-85
2023/11/16 13:36:08;;;;;;;8.17;2.70;;;;;;;;;;5118519;28;20019;-85
2023/11/16 13:38:33;;;;;;;7.95;3.00;;;;;;;;;;5118601;28;20576;-85
2023/11/16 13:40:58;;;;;;;9.43;3.10;;;;;;;;;;5117928;28;20034;-85
2023/11/16 13:43:24;;;;;;;10.48;3.08;;;;;;;;;;5118345;28;20301;-84
2023/11/16 13:45:49;;;;;;;11.93;3.28;;;;;;;;;;5118226;28;20464;-84
2023/11/16 13:48:17;;;;;;;8.40;2.50;;;;;;;;;;5118197;28;20024;-85
2023/11/16 13:50:42;;;;;;;9.35;2.80;;;;;;;;;;5118155;28;20260;-85
2023/11/16 13:53:07;;;;;;;7.50;2.63;;;;;;;;;;5117850;28;20080;-85
2023/11/16 13:55:32;;;;;;;8.10;2.43;;;;;;;;;;5117946;28;20361;-84
2023/11/16 13:57:58;;;;;;;7.15;1.80;;;;;;;;;;5117735;28;20015;-84
2023/11/16 14:00:27;;;;;;;6.03;2.40;;;;;;;;;;5118195;28;20024;-85
2023/11/16 14:02:52;;;;;;;4.97;1.75;;;;;;;;;;5099690;28;20380;-85
2023/11/16 14:05:18;;;;;;;2.63;1.43;;;;;;;;;;5117782;28;20024;-84
2023/11/16 14:07:43;;;;;;;4.40;1.70;;;;;;;;;;5117615;28;20248;-85
2023/11/16 14:10:09;;;;;;;3.22;1.52;;;;;;;;;;5117630;28;20019;-85
2023/11/16 14:12:35;;;;;;;3.50;1.70;;;;;;;;;;5117812;28;20048;-84
2023/11/16 14:15:00;;;;;;;5.85;1.45;;;;;;;;;;5117629;28;20026;-84
2023/11/16 14:17:25;;;;;;;3.27;1.57;;;;;;;;;;5098950;28;20035;-85
2023/11/16 14:19:51;;;;;;;7.55;1.92;;;;;;;;;;5117175;28;20769;-85
2023/11/16 14:22:18;;;;;;;8.93;2.37;;;;;;;;;;5117106;28;20479;-85
2023/11/16 14:24:44;;;;;;;5.63;1.95;;;;;;;;;;5117340;28;20654;-85
2023/11/16 14:27:10;;;;;;;2.80;1.50;;;;;;;;;;5117335;28;20016;-84
2023/11/16 14:29:35;;;;;;;5.03;1.65;;;;;;;;;;5117063;28;20023;-84
2023/11/16 14:32:01;;;;;;;8.27;1.88;;;;;;;;;;5117216;28;20072;-84
2023/11/16 14:34:26;;;;;;;4.35;1.88;;;;;;;;;;5117247;28;20051;-84
2023/11/16 14:36:51;;;;;;;3.33;1.23;;;;;;;;;;5117481;28;20034;-85